sensor_id;sensor_type;location;lat;lon;timestamp;pressure;altitude;pressure_sealevel;temperature;humidity
68889;BME280;55930;47.412;8.790;2023-05-24T00:00:37;94669.44;;;12.67;100.00
68889;BME280;55930;47.412;8.790;2023-05-24T00:03:57;94664.84;;;12.67;100.00
68889;BME280;55930;47.412;8.790;2023-05-24T00:07:18;94657.09;;;12.69;100.00
68889;BME280;55930;47.412;8.790;2023-05-24T00:10:39;94669.19;;;12.70;100.00
68889;BME280;55930;47.412;8.790;2023-05-24T00:13:59;94661.44;;;12.67;100.00
68889;BME280;55930;47.412;8.790;2023-05-24T00:17:20;94666.97;;;12.63;100.00
68889;BME280;55930;47.412;8.790;2023-05-24T00:20:40;94671.53;;;12.62;100.00
68889;BME280;55930;47.412;8.790;2023-05-24T00:24:01;94671.81;;;12.64;100.00
68889;BME280;55930;47.412;8.790;2023-05-24T00:27:21;94667.63;;;12.58;100.00
68889;BME280;55930;47.412;8.790;2023-05-24T00:30:42;94663.78;;;12.59;100.00
68889;BME280;55930;47.412;8.790;2023-05-24T00:34:03;94671.97;;;12.55;100.00
68889;BME280;55930;47.412;8.790;2023-05-24T00:37:23;94664.44;;;12.54;100.00
68889;BME280;55930;47.412;8.790;2023-05-24T00:40:43;94660.34;;;12.53;100.00
68889;BME280;55930;47.412;8.790;2023-05-24T00:44:05;94669.97;;;12.50;100.00
68889;BME280;55930;47.412;8.790;2023-05-24T00:47:26;94660.84;;;12.57;100.00
68889;BME280;55930;47.412;8.790;2023-05-24T00:50:46;94666.84;;;12.52;100.00
68889;BME280;55930;47.412;8.790;2023-05-24T00:54:07;94657.25;;;12.60;100.00
68889;BME280;55930;47.412;8.790;2023-05-24T00:57:27;94653.22;;;12.44;100.00
68889;BME280;55930;47.412;8.790;2023-05-24T01:00:49;94661.69;;;12.43;100.00
68889;BME280;55930;47.412;8.790;2023-05-24T01:04:12;94659.94;;;12.40;100.00
68889;BME280;55930;47.412;8.790;2023-05-24T01:07:43;94660.41;;;12.38;100.00
68889;BME280;55930;47.412;8.790;2023-05-24T01:15:03;94664.84;;;12.47;100.00
68889;BME280;55930;47.412;8.790;2023-05-24T01:18:33;94659.16;;;12.34;100.00
68889;BME280;55930;47.412;8.790;2023-05-24T01:22:11;94662.13;;;12.41;100.00
68889;BME280;55930;47.412;8.790;2023-05-24T01:29:31;94642.91;;;12.32;100.00
68889;BME280;55930;47.412;8.790;2023-05-24T01:32:52;94644.06;;;12.25;100.00
68889;BME280;55930;47.412;8.790;2023-05-24T01:36:12;94644.97;;;12.22;100.00
68889;BME280;55930;47.412;8.790;2023-05-24T01:39:33;94646.44;;;12.23;100.00
68889;BME280;55930;47.412;8.790;2023-05-24T01:46:36;94646.25;;;12.26;100.00
68889;BME280;55930;47.412;8.790;2023-05-24T01:50:10;94645.31;;;12.30;100.00
68889;BME280;55930;47.412;8.790;2023-05-24T01:53:36;94651.69;;;12.38;100.00
68889;BME280;55930;47.412;8.790;2023-05-24T01:57:04;94652.59;;;12.29;100.00
68889;BME280;55930;47.412;8.790;2023-05-24T02:00:26;94645.53;;;12.26;100.00
68889;BME280;55930;47.412;8.790;2023-05-24T02:03:48;94646.78;;;12.31;100.00
68889;BME280;55930;47.412;8.790;2023-05-24T02:07:09;94650.19;;;12.11;100.00
68889;BME280;55930;47.412;8.790;2023-05-24T02:10:30;94648.59;;;12.19;100.00
68889;BME280;55930;47.412;8.790;2023-05-24T02:13:50;94639.16;;;12.18;100.00
68889;BME280;55930;47.412;8.790;2023-05-24T02:17:11;94646.66;;;12.19;100.00
68889;BME280;55930;47.412;8.790;2023-05-24T02:20:32;94636.81;;;12.05;100.00
68889;BME280;55930;47.412;8.790;2023-05-24T02:23:55;94644.00;;;12.19;100.00
68889;BME280;55930;47.412;8.790;2023-05-24T02:27:17;94634.22;;;12.11;100.00
68889;BME280;55930;47.412;8.790;2023-05-24T02:30:38;94628.63;;;12.09;100.00
68889;BME280;55930;47.412;8.790;2023-05-24T02:33:58;94635.44;;;12.10;100.00
68889;BME280;55930;47.412;8.790;2023-05-24T02:37:22;94633.16;;;12.03;100.00
68889;BME280;55930;47.412;8.790;2023-05-24T02:40:45;94626.09;;;12.00;100.00
68889;BME280;55930;47.412;8.790;2023-05-24T02:44:05;94634.34;;;12.02;100.00
68889;BME280;55930;47.412;8.790;2023-05-24T02:47:26;94634.94;;;11.91;100.00
68889;BME280;55930;47.412;8.790;2023-05-24T02:50:46;94624.97;;;11.86;100.00
68889;BME280;55930;47.412;8.790;2023-05-24T02:54:07;94624.78;;;11.89;100.00
68889;BME280;55930;47.412;8.790;2023-05-24T02:57:27;94626.28;;;11.76;100.00
68889;BME280;55930;47.412;8.790;2023-05-24T03:00:48;94624.41;;;11.62;100.00
68889;BME280;55930;47.412;8.790;2023-05-24T03:04:09;94637.66;;;11.76;100.00
68889;BME280;55930;47.412;8.790;2023-05-24T03:07:30;94637.56;;;11.71;100.00
68889;BME280;55930;47.412;8.790;2023-05-24T03:10:50;94633.84;;;11.63;100.00
68889;BME280;55930;47.412;8.790;2023-05-24T03:14:10;94632.88;;;11.66;100.00
68889;BME280;55930;47.412;8.790;2023-05-24T03:17:31;94632.69;;;11.49;100.00
68889;BME280;55930;47.412;8.790;2023-05-24T03:20:51;94630.28;;;11.51;100.00
68889;BME280;55930;47.412;8.790;2023-05-24T03:24:12;94633.53;;;11.40;100.00
68889;BME280;55930;47.412;8.790;2023-05-24T03:27:32;94631.78;;;11.37;100.00
68889;BME280;55930;47.412;8.790;2023-05-24T03:30:53;94637.75;;;11.32;100.00
68889;BME280;55930;47.412;8.790;2023-05-24T03:34:13;94630.66;;;11.44;100.00
68889;BME280;55930;47.412;8.790;2023-05-24T03:37:36;94634.44;;;11.37;100.00
68889;BME280;55930;47.412;8.790;2023-05-24T03:40:56;94635.63;;;11.36;100.00
68889;BME280;55930;47.412;8.790;2023-05-24T03:44:17;94644.50;;;11.48;100.00
68889;BME280;55930;47.412;8.790;2023-05-24T03:47:37;94643.06;;;11.32;100.00
68889;BME280;55930;47.412;8.790;2023-05-24T03:50:57;94650.09;;;11.35;100.00
68889;BME280;55930;47.412;8.790;2023-05-24T03:54:18;94651.41;;;11.25;100.00
68889;BME280;55930;47.412;8.790;2023-05-24T03:57:39;94648.84;;;11.31;100.00
68889;BME280;55930;47.412;8.790;2023-05-24T04:01:02;94650.13;;;11.21;100.00
68889;BME280;55930;47.412;8.790;2023-05-24T04:04:23;94651.22;;;11.29;100.00
68889;BME280;55930;47.412;8.790;2023-05-24T04:07:46;94650.75;;;11.30;100.00
68889;BME280;55930;47.412;8.790;2023-05-24T04:11:06;94647.44;;;11.35;100.00
68889;BME280;55930;47.412;8.790;2023-05-24T04:14:26;94635.22;;;11.23;100.00
68889;BME280;55930;47.412;8.790;2023-05-24T04:17:47;94645.16;;;11.28;100.00
68889;BME280;55930;47.412;8.790;2023-05-24T04:21:07;94642.59;;;11.34;100.00
68889;BME280;55930;47.412;8.790;2023-05-24T04:24:28;94634.44;;;11.37;100.00
68889;BME280;55930;47.412;8.790;2023-05-24T04:27:48;94637.56;;;11.36;100.00
68889;BME280;55930;47.412;8.790;2023-05-24T04:31:09;94634.38;;;11.32;100.00
68889;BME280;55930;47.412;8.790;2023-05-24T04:34:30;94644.41;;;11.42;100.00
68889;BME280;55930;47.412;8.790;2023-05-24T04:37:52;94641.75;;;11.42;100.00
68889;BME280;55930;47.412;8.790;2023-05-24T04:41:13;94640.66;;;11.34;100.00
68889;BME280;55930;47.412;8.790;2023-05-24T04:44:33;94641.03;;;11.27;100.00
68889;BME280;55930;47.412;8.790;2023-05-24T04:47:54;94639.16;;;11.13;100.00
68889;BME280;55930;47.412;8.790;2023-05-24T04:51:14;94634.91;;;11.36;100.00
68889;BME280;55930;47.412;8.790;2023-05-24T04:54:35;94643.56;;;11.51;100.00
68889;BME280;55930;47.412;8.790;2023-05-24T04:57:55;94640.56;;;11.43;100.00
68889;BME280;55930;47.412;8.790;2023-05-24T05:01:16;94642.34;;;11.32;100.00
68889;BME280;55930;47.412;8.790;2023-05-24T05:04:37;94645.97;;;11.49;100.00
68889;BME280;55930;47.412;8.790;2023-05-24T05:07:57;94655.50;;;11.26;100.00
68889;BME280;55930;47.412;8.790;2023-05-24T05:11:18;94656.16;;;11.36;100.00
68889;BME280;55930;47.412;8.790;2023-05-24T05:14:39;94664.31;;;11.32;100.00
68889;BME280;55930;47.412;8.790;2023-05-24T05:18:00;94665.13;;;11.38;100.00
68889;BME280;55930;47.412;8.790;2023-05-24T05:21:20;94664.97;;;11.12;100.00
68889;BME280;55930;47.412;8.790;2023-05-24T05:24:41;94665.84;;;11.39;100.00
68889;BME280;55930;47.412;8.790;2023-05-24T05:28:03;94667.06;;;11.38;100.00
68889;BME280;55930;47.412;8.790;2023-05-24T05:31:26;94662.00;;;11.40;100.00
68889;BME280;55930;47.412;8.790;2023-05-24T05:34:48;94671.06;;;11.48;100.00
68889;BME280;55930;47.412;8.790;2023-05-24T05:38:10;94667.72;;;11.33;100.00
68889;BME280;55930;47.412;8.790;2023-05-24T05:41:30;94665.19;;;11.44;100.00
68889;BME280;55930;47.412;8.790;2023-05-24T05:44:51;94672.38;;;11.38;100.00
68889;BME280;55930;47.412;8.790;2023-05-24T05:48:11;94676.28;;;11.57;100.00
68889;BME280;55930;47.412;8.790;2023-05-24T05:51:32;94678.66;;;11.55;100.00
68889;BME280;55930;47.412;8.790;2023-05-24T05:54:52;94683.03;;;11.58;100.00
68889;BME280;55930;47.412;8.790;2023-05-24T05:58:13;94678.44;;;11.59;100.00
68889;BME280;55930;47.412;8.790;2023-05-24T06:01:33;94668.09;;;11.61;100.00
68889;BME280;55930;47.412;8.790;2023-05-24T06:04:54;94672.09;;;11.85;100.00
68889;BME280;55930;47.412;8.790;2023-05-24T06:08:15;94672.53;;;11.34;100.00
68889;BME280;55930;47.412;8.790;2023-05-24T06:11:35;94669.50;;;11.41;100.00
68889;BME280;55930;47.412;8.790;2023-05-24T06:14:56;94679.84;;;11.54;100.00
68889;BME280;55930;47.412;8.790;2023-05-24T06:18:18;94679.28;;;11.50;100.00
68889;BME280;55930;47.412;8.790;2023-05-24T06:21:40;94679.69;;;11.28;100.00
68889;BME280;55930;47.412;8.790;2023-05-24T06:25:06;94683.91;;;11.35;100.00
68889;BME280;55930;47.412;8.790;2023-05-24T06:28:27;94685.53;;;11.47;100.00
68889;BME280;55930;47.412;8.790;2023-05-24T06:31:48;94682.59;;;11.45;100.00
68889;BME280;55930;47.412;8.790;2023-05-24T06:35:08;94684.00;;;11.26;100.00
68889;BME280;55930;47.412;8.790;2023-05-24T06:38:29;94691.22;;;11.55;100.00
68889;BME280;55930;47.412;8.790;2023-05-24T06:41:52;94688.44;;;11.99;100.00
68889;BME280;55930;47.412;8.790;2023-05-24T06:45:12;94689.66;;;11.98;100.00
68889;BME280;55930;47.412;8.790;2023-05-24T06:48:34;94690.31;;;11.93;100.00
68889;BME280;55930;47.412;8.790;2023-05-24T06:51:54;94694.53;;;12.19;100.00
68889;BME280;55930;47.412;8.790;2023-05-24T06:55:14;94694.00;;;12.36;100.00
68889;BME280;55930;47.412;8.790;2023-05-24T06:58:37;94694.41;;;12.29;100.00
68889;BME280;55930;47.412;8.790;2023-05-24T07:01:58;94696.56;;;12.71;100.00
68889;BME280;55930;47.412;8.790;2023-05-24T07:05:19;94690.34;;;13.05;100.00
68889;BME280;55930;47.412;8.790;2023-05-24T07:08:40;94696.44;;;13.31;100.00
68889;BME280;55930;47.412;8.790;2023-05-24T07:12:01;94686.97;;;13.04;100.00
68889;BME280;55930;47.412;8.790;2023-05-24T07:15:21;94702.59;;;12.91;100.00
68889;BME280;55930;47.412;8.790;2023-05-24T07:18:44;94707.75;;;12.54;100.00
68889;BME280;55930;47.412;8.790;2023-05-24T07:22:05;94708.00;;;12.77;100.00
68889;BME280;55930;47.412;8.790;2023-05-24T07:25:26;94711.78;;;12.90;100.00
68889;BME280;55930;47.412;8.790;2023-05-24T07:28:47;94707.81;;;13.32;100.00
68889;BME280;55930;47.412;8.790;2023-05-24T07:32:07;94716.94;;;13.25;100.00
68889;BME280;55930;47.412;8.790;2023-05-24T07:35:28;94715.22;;;12.96;100.00
68889;BME280;55930;47.412;8.790;2023-05-24T07:38:48;94714.50;;;13.48;100.00
68889;BME280;55930;47.412;8.790;2023-05-24T07:42:08;94714.56;;;13.27;100.00
68889;BME280;55930;47.412;8.790;2023-05-24T07:45:29;94708.88;;;13.14;100.00
68889;BME280;55930;47.412;8.790;2023-05-24T07:48:50;94706.34;;;13.05;100.00
68889;BME280;55930;47.412;8.790;2023-05-24T07:52:11;94705.47;;;13.39;100.00
68889;BME280;55930;47.412;8.790;2023-05-24T07:55:34;94708.72;;;13.03;100.00
68889;BME280;55930;47.412;8.790;2023-05-24T07:58:55;94713.38;;;12.82;100.00
68889;BME280;55930;47.412;8.790;2023-05-24T08:02:24;94718.03;;;12.87;100.00
68889;BME280;55930;47.412;8.790;2023-05-24T08:05:45;94712.88;;;12.58;100.00
68889;BME280;55930;47.412;8.790;2023-05-24T08:09:06;94715.25;;;12.76;100.00
68889;BME280;55930;47.412;8.790;2023-05-24T08:12:27;94718.47;;;12.86;100.00
68889;BME280;55930;47.412;8.790;2023-05-24T08:15:49;94715.25;;;13.22;100.00
68889;BME280;55930;47.412;8.790;2023-05-24T08:19:09;94724.34;;;12.90;100.00
68889;BME280;55930;47.412;8.790;2023-05-24T08:22:30;94724.09;;;12.88;100.00
68889;BME280;55930;47.412;8.790;2023-05-24T08:25:51;94720.97;;;12.69;100.00
68889;BME280;55930;47.412;8.790;2023-05-24T08:29:12;94721.81;;;13.27;100.00
68889;BME280;55930;47.412;8.790;2023-05-24T08:32:35;94722.50;;;13.22;100.00
68889;BME280;55930;47.412;8.790;2023-05-24T08:35:55;94724.94;;;12.99;100.00
68889;BME280;55930;47.412;8.790;2023-05-24T08:39:15;94733.66;;;13.00;100.00
68889;BME280;55930;47.412;8.790;2023-05-24T08:42:39;94735.78;;;12.96;100.00
68889;BME280;55930;47.412;8.790;2023-05-24T08:46:01;94736.47;;;12.71;100.00
68889;BME280;55930;47.412;8.790;2023-05-24T08:49:23;94733.78;;;13.68;100.00
68889;BME280;55930;47.412;8.790;2023-05-24T08:52:45;94738.00;;;13.81;100.00
68889;BME280;55930;47.412;8.790;2023-05-24T08:56:06;94738.44;;;12.96;100.00
68889;BME280;55930;47.412;8.790;2023-05-24T08:59:29;94745.59;;;12.84;100.00
68889;BME280;55930;47.412;8.790;2023-05-24T09:02:50;94747.22;;;12.76;100.00
68889;BME280;55930;47.412;8.790;2023-05-24T09:06:11;94746.41;;;12.70;100.00
68889;BME280;55930;47.412;8.790;2023-05-24T09:09:33;94748.72;;;12.62;100.00
68889;BME280;55930;47.412;8.790;2023-05-24T09:12:56;94749.91;;;12.82;100.00
68889;BME280;55930;47.412;8.790;2023-05-24T09:16:17;94753.72;;;12.35;100.00
68889;BME280;55930;47.412;8.790;2023-05-24T09:19:38;94759.91;;;12.67;100.00
68889;BME280;55930;47.412;8.790;2023-05-24T09:23:01;94762.25;;;12.59;100.00
68889;BME280;55930;47.412;8.790;2023-05-24T09:26:26;94764.97;;;12.64;100.00
68889;BME280;55930;47.412;8.790;2023-05-24T09:29:49;94769.22;;;12.36;100.00
68889;BME280;55930;47.412;8.790;2023-05-24T09:33:11;94764.69;;;11.87;100.00
68889;BME280;55930;47.412;8.790;2023-05-24T09:36:32;94763.22;;;11.57;100.00
68889;BME280;55930;47.412;8.790;2023-05-24T09:39:55;94763.16;;;12.01;100.00
68889;BME280;55930;47.412;8.790;2023-05-24T09:43:17;94767.72;;;12.15;100.00
68889;BME280;55930;47.412;8.790;2023-05-24T09:46:38;94762.91;;;11.99;100.00
68889;BME280;55930;47.412;8.790;2023-05-24T09:49:59;94769.63;;;11.65;100.00
68889;BME280;55930;47.412;8.790;2023-05-24T09:53:21;94767.13;;;11.91;100.00
68889;BME280;55930;47.412;8.790;2023-05-24T09:56:41;94766.50;;;11.66;100.00
68889;BME280;55930;47.412;8.790;2023-05-24T10:00:25;94766.13;;;11.73;100.00
68889;BME280;55930;47.412;8.790;2023-05-24T10:03:53;94764.69;;;11.87;100.00
68889;BME280;55930;47.412;8.790;2023-05-24T10:07:15;94769.97;;;12.02;100.00
68889;BME280;55930;47.412;8.790;2023-05-24T10:10:35;94766.75;;;11.98;100.00
68889;BME280;55930;47.412;8.790;2023-05-24T10:13:56;94774.16;;;12.08;100.00
68889;BME280;55930;47.412;8.790;2023-05-24T10:17:19;94769.63;;;11.94;100.00
68889;BME280;55930;47.412;8.790;2023-05-24T10:20:40;94768.97;;;11.84;100.00
68889;BME280;55930;47.412;8.790;2023-05-24T10:24:01;94769.50;;;12.03;100.00
68889;BME280;55930;47.412;8.790;2023-05-24T10:27:23;94770.34;;;11.95;100.00
68889;BME280;55930;47.412;8.790;2023-05-24T10:34:24;94782.56;;;12.21;100.00
68889;BME280;55930;47.412;8.790;2023-05-24T10:37:45;94774.72;;;11.98;100.00
68889;BME280;55930;47.412;8.790;2023-05-24T10:41:07;94773.28;;;11.97;100.00
68889;BME280;55930;47.412;8.790;2023-05-24T10:44:28;94775.31;;;11.87;100.00
68889;BME280;55930;47.412;8.790;2023-05-24T10:47:50;94781.09;;;11.85;100.00
68889;BME280;55930;47.412;8.790;2023-05-24T10:51:37;94784.63;;;12.12;100.00
68889;BME280;55930;47.412;8.790;2023-05-24T10:58:42;94779.47;;;12.08;100.00
68889;BME280;55930;47.412;8.790;2023-05-24T11:02:06;94787.31;;;11.82;100.00
68889;BME280;55930;47.412;8.790;2023-05-24T11:09:08;94782.94;;;12.14;100.00
68889;BME280;55930;47.412;8.790;2023-05-24T11:12:30;94779.94;;;12.82;100.00
68889;BME280;55930;47.412;8.790;2023-05-24T11:15:57;94774.41;;;12.86;100.00
68889;BME280;55930;47.412;8.790;2023-05-24T11:19:19;94779.19;;;12.61;100.00
68889;BME280;55930;47.412;8.790;2023-05-24T11:22:40;94777.34;;;12.47;100.00
68889;BME280;55930;47.412;8.790;2023-05-24T11:26:01;94778.19;;;12.79;100.00
68889;BME280;55930;47.412;8.790;2023-05-24T11:29:23;94772.16;;;12.58;100.00
68889;BME280;55930;47.412;8.790;2023-05-24T11:32:46;94774.28;;;12.75;100.00
68889;BME280;55930;47.412;8.790;2023-05-24T11:36:07;94782.94;;;12.49;100.00
68889;BME280;55930;47.412;8.790;2023-05-24T11:39:29;94785.53;;;12.44;100.00
68889;BME280;55930;47.412;8.790;2023-05-24T11:42:53;94783.84;;;12.26;100.00
68889;BME280;55930;47.412;8.790;2023-05-24T11:46:14;94777.44;;;12.18;100.00
68889;BME280;55930;47.412;8.790;2023-05-24T11:49:34;94769.00;;;13.00;100.00
68889;BME280;55930;47.412;8.790;2023-05-24T11:53:01;94777.66;;;13.41;100.00
68889;BME280;55930;47.412;8.790;2023-05-24T11:56:23;94768.34;;;13.57;100.00
68889;BME280;55930;47.412;8.790;2023-05-24T11:59:43;94769.06;;;13.58;100.00
68889;BME280;55930;47.412;8.790;2023-05-24T12:03:04;94768.63;;;13.33;100.00
68889;BME280;55930;47.412;8.790;2023-05-24T12:06:34;94766.16;;;13.87;100.00
68889;BME280;55930;47.412;8.790;2023-05-24T12:09:55;94764.28;;;13.62;100.00
68889;BME280;55930;47.412;8.790;2023-05-24T12:13:20;94761.19;;;13.69;100.00
68889;BME280;55930;47.412;8.790;2023-05-24T12:16:45;94762.66;;;13.75;100.00
68889;BME280;55930;47.412;8.790;2023-05-24T12:20:09;94761.53;;;14.25;100.00
68889;BME280;55930;47.412;8.790;2023-05-24T12:23:29;94756.09;;;13.71;100.00
68889;BME280;55930;47.412;8.790;2023-05-24T12:26:57;94766.50;;;13.69;100.00
68889;BME280;55930;47.412;8.790;2023-05-24T12:30:22;94753.03;;;13.84;100.00
68889;BME280;55930;47.412;8.790;2023-05-24T12:33:46;94758.63;;;13.54;100.00
68889;BME280;55930;47.412;8.790;2023-05-24T12:37:07;94745.81;;;14.32;100.00
68889;BME280;55930;47.412;8.790;2023-05-24T12:40:31;94747.44;;;14.18;100.00
68889;BME280;55930;47.412;8.790;2023-05-24T12:43:52;94751.41;;;13.97;100.00
68889;BME280;55930;47.412;8.790;2023-05-24T12:47:13;94754.38;;;13.68;100.00
68889;BME280;55930;47.412;8.790;2023-05-24T12:50:33;94757.03;;;13.36;100.00
68889;BME280;55930;47.412;8.790;2023-05-24T12:53:56;94753.00;;;13.78;100.00
68889;BME280;55930;47.412;8.790;2023-05-24T12:57:18;94755.06;;;13.63;100.00
68889;BME280;55930;47.412;8.790;2023-05-24T13:00:38;94760.84;;;13.56;100.00
68889;BME280;55930;47.412;8.790;2023-05-24T13:03:59;94761.00;;;13.47;100.00
68889;BME280;55930;47.412;8.790;2023-05-24T13:07:19;94756.97;;;12.64;100.00
68889;BME280;55930;47.412;8.790;2023-05-24T13:10:40;94760.69;;;12.93;100.00
68889;BME280;55930;47.412;8.790;2023-05-24T13:14:02;94757.81;;;13.43;100.00
68889;BME280;55930;47.412;8.790;2023-05-24T13:17:23;94753.47;;;13.45;100.00
68889;BME280;55930;47.412;8.790;2023-05-24T13:20:43;94746.81;;;13.61;100.00
68889;BME280;55930;47.412;8.790;2023-05-24T13:24:04;94746.91;;;13.72;100.00
68889;BME280;55930;47.412;8.790;2023-05-24T13:27:25;94736.06;;;13.50;100.00
68889;BME280;55930;47.412;8.790;2023-05-24T13:30:46;94730.63;;;14.07;100.00
68889;BME280;55930;47.412;8.790;2023-05-24T13:34:08;94726.78;;;14.13;100.00
68889;BME280;55930;47.412;8.790;2023-05-24T13:37:32;94731.63;;;14.52;100.00
68889;BME280;55930;47.412;8.790;2023-05-24T13:40:53;94729.97;;;14.66;100.00
68889;BME280;55930;47.412;8.790;2023-05-24T13:44:14;94734.50;;;15.47;100.00
68889;BME280;55930;47.412;8.790;2023-05-24T13:47:35;94736.97;;;15.67;99.58
68889;BME280;55930;47.412;8.790;2023-05-24T13:50:57;94739.63;;;15.84;92.98
68889;BME280;55930;47.412;8.790;2023-05-24T13:54:17;94737.00;;;16.75;93.37
68889;BME280;55930;47.412;8.790;2023-05-24T13:57:38;94742.78;;;16.90;90.09
68889;BME280;55930;47.412;8.790;2023-05-24T14:00:58;94732.75;;;16.22;89.94
68889;BME280;55930;47.412;8.790;2023-05-24T14:04:18;94742.75;;;15.21;91.64
68889;BME280;55930;47.412;8.790;2023-05-24T14:07:39;94738.00;;;16.61;87.38
68889;BME280;55930;47.412;8.790;2023-05-24T14:10:59;94733.09;;;15.79;87.80
68889;BME280;55930;47.412;8.790;2023-05-24T14:14:22;94726.03;;;15.59;88.27
68889;BME280;55930;47.412;8.790;2023-05-24T14:17:43;94731.75;;;14.97;93.05
68889;BME280;55930;47.412;8.790;2023-05-24T14:21:03;94727.88;;;15.09;93.63
68889;BME280;55930;47.412;8.790;2023-05-24T14:24:24;94723.28;;;14.98;94.31
68889;BME280;55930;47.412;8.790;2023-05-24T14:27:44;94726.16;;;14.83;94.27
68889;BME280;55930;47.412;8.790;2023-05-24T14:31:07;94727.09;;;14.86;95.61
68889;BME280;55930;47.412;8.790;2023-05-24T14:34:27;94722.97;;;14.79;97.10
68889;BME280;55930;47.412;8.790;2023-05-24T14:37:47;94719.91;;;15.31;95.07
68889;BME280;55930;47.412;8.790;2023-05-24T14:41:08;94720.31;;;14.79;92.93
68889;BME280;55930;47.412;8.790;2023-05-24T14:44:29;94719.16;;;15.08;92.70
68889;BME280;55930;47.412;8.790;2023-05-24T14:47:50;94716.69;;;14.93;92.38
68889;BME280;55930;47.412;8.790;2023-05-24T14:51:10;94712.66;;;15.48;90.95
68889;BME280;55930;47.412;8.790;2023-05-24T14:54:30;94712.81;;;14.89;92.73
68889;BME280;55930;47.412;8.790;2023-05-24T14:57:51;94713.53;;;15.01;93.88
68889;BME280;55930;47.412;8.790;2023-05-24T15:01:11;94701.91;;;15.26;92.50
68889;BME280;55930;47.412;8.790;2023-05-24T15:04:32;94705.28;;;14.99;94.28
68889;BME280;55930;47.412;8.790;2023-05-24T15:07:52;94706.97;;;14.90;91.22
68889;BME280;55930;47.412;8.790;2023-05-24T15:11:12;94701.72;;;15.57;88.75
68889;BME280;55930;47.412;8.790;2023-05-24T15:14:36;94708.75;;;15.88;89.27
68889;BME280;55930;47.412;8.790;2023-05-24T15:17:57;94700.13;;;16.23;90.43
68889;BME280;55930;47.412;8.790;2023-05-24T15:21:19;94705.84;;;15.69;88.10
68889;BME280;55930;47.412;8.790;2023-05-24T15:24:39;94708.03;;;15.77;90.04
68889;BME280;55930;47.412;8.790;2023-05-24T15:28:00;94696.31;;;15.91;89.55
68889;BME280;55930;47.412;8.790;2023-05-24T15:31:20;94696.34;;;15.74;91.05
68889;BME280;55930;47.412;8.790;2023-05-24T15:34:41;94699.47;;;15.11;93.36
68889;BME280;55930;47.412;8.790;2023-05-24T15:38:02;94694.09;;;14.94;94.41
68889;BME280;55930;47.412;8.790;2023-05-24T15:41:23;94696.81;;;15.22;96.24
68889;BME280;55930;47.412;8.790;2023-05-24T15:44:46;94703.50;;;14.62;100.00
68889;BME280;55930;47.412;8.790;2023-05-24T15:48:06;94706.50;;;14.33;100.00
68889;BME280;55930;47.412;8.790;2023-05-24T15:51:27;94699.81;;;14.43;100.00
68889;BME280;55930;47.412;8.790;2023-05-24T15:54:49;94700.00;;;13.97;100.00
68889;BME280;55930;47.412;8.790;2023-05-24T15:58:10;94708.16;;;13.76;100.00
68889;BME280;55930;47.412;8.790;2023-05-24T16:01:32;94711.16;;;13.27;100.00
68889;BME280;55930;47.412;8.790;2023-05-24T16:04:52;94712.72;;;13.39;100.00
68889;BME280;55930;47.412;8.790;2023-05-24T16:08:14;94702.78;;;13.39;100.00
68889;BME280;55930;47.412;8.790;2023-05-24T16:11:36;94702.81;;;13.14;100.00
68889;BME280;55930;47.412;8.790;2023-05-24T16:14:58;94704.28;;;13.15;100.00
68889;BME280;55930;47.412;8.790;2023-05-24T16:18:21;94715.78;;;13.06;100.00
68889;BME280;55930;47.412;8.790;2023-05-24T16:21:41;94713.03;;;13.21;100.00
68889;BME280;55930;47.412;8.790;2023-05-24T16:25:02;94714.28;;;13.25;100.00
68889;BME280;55930;47.412;8.790;2023-05-24T16:28:22;94705.41;;;13.08;100.00
68889;BME280;55930;47.412;8.790;2023-05-24T16:31:43;94701.53;;;12.83;100.00
68889;BME280;55930;47.412;8.790;2023-05-24T16:35:04;94711.53;;;12.94;100.00
68889;BME280;55930;47.412;8.790;2023-05-24T16:38:26;94703.47;;;12.83;100.00
68889;BME280;55930;47.412;8.790;2023-05-24T16:41:46;94707.00;;;12.54;100.00
68889;BME280;55930;47.412;8.790;2023-05-24T16:45:07;94701.63;;;12.69;100.00
68889;BME280;55930;47.412;8.790;2023-05-24T16:48:28;94699.53;;;12.52;100.00
68889;BME280;55930;47.412;8.790;2023-05-24T16:51:50;94703.09;;;12.49;100.00
68889;BME280;55930;47.412;8.790;2023-05-24T16:55:11;94701.59;;;12.43;100.00
68889;BME280;55930;47.412;8.790;2023-05-24T16:58:31;94706.31;;;12.33;100.00
68889;BME280;55930;47.412;8.790;2023-05-24T17:01:52;94702.97;;;12.18;100.00
68889;BME280;55930;47.412;8.790;2023-05-24T17:05:15;94699.91;;;12.05;100.00
68889;BME280;55930;47.412;8.790;2023-05-24T17:08:35;94696.19;;;12.17;100.00
68889;BME280;55930;47.412;8.790;2023-05-24T17:11:56;94701.09;;;12.24;100.00
68889;BME280;55930;47.412;8.790;2023-05-24T17:15:16;94711.47;;;12.22;100.00
68889;BME280;55930;47.412;8.790;2023-05-24T17:18:36;94705.09;;;12.14;100.00
68889;BME280;55930;47.412;8.790;2023-05-24T17:21:57;94707.66;;;11.88;100.00
68889;BME280;55930;47.412;8.790;2023-05-24T17:25:17;94718.97;;;12.03;100.00
68889;BME280;55930;47.412;8.790;2023-05-24T17:28:38;94724.81;;;12.07;100.00
68889;BME280;55930;47.412;8.790;2023-05-24T17:31:58;94721.03;;;11.94;100.00
68889;BME280;55930;47.412;8.790;2023-05-24T17:35:18;94710.22;;;11.97;100.00
68889;BME280;55930;47.412;8.790;2023-05-24T17:38:39;94718.63;;;11.96;100.00
68889;BME280;55930;47.412;8.790;2023-05-24T17:42:00;94726.34;;;11.94;100.00
68889;BME280;55930;47.412;8.790;2023-05-24T17:45:20;94719.22;;;11.70;100.00
68889;BME280;55930;47.412;8.790;2023-05-24T17:48:41;94728.09;;;11.82;100.00
68889;BME280;55930;47.412;8.790;2023-05-24T17:52:02;94718.19;;;11.68;100.00
68889;BME280;55930;47.412;8.790;2023-05-24T17:55:23;94727.47;;;11.72;100.00